sensor_id;sensor_type;location;lat;lon;timestamp;P1;durP1;ratioP1;P2;durP2;ratioP2
56242;SDS011;42155;53.096;23.226;2023-07-31T00:01:37;7.97;;;5.85;;
56242;SDS011;42155;53.096;23.226;2023-07-31T00:03:38;9.45;;;5.97;;
56242;SDS011;42155;53.096;23.226;2023-07-31T00:05:38;8.70;;;5.93;;
56242;SDS011;42155;53.096;23.226;2023-07-31T00:07:38;8.00;;;6.18;;
56242;SDS011;42155;53.096;23.226;2023-07-31T00:09:39;8.10;;;5.95;;
56242;SDS011;42155;53.096;23.226;2023-07-31T00:11:39;7.78;;;5.78;;
56242;SDS011;42155;53.096;23.226;2023-07-31T00:13:39;10.60;;;5.60;;
56242;SDS011;42155;53.096;23.226;2023-07-31T00:15:40;7.53;;;5.43;;
56242;SDS011;42155;53.096;23.226;2023-07-31T00:17:40;11.15;;;5.15;;
56242;SDS011;42155;53.096;23.226;2023-07-31T00:19:40;6.82;;;5.47;;
56242;SDS011;42155;53.096;23.226;2023-07-31T00:21:41;9.85;;;5.57;;
56242;SDS011;42155;53.096;23.226;2023-07-31T00:23:41;8.00;;;5.90;;
56242;SDS011;42155;53.096;23.226;2023-07-31T00:25:41;7.05;;;5.57;;
56242;SDS011;42155;53.096;23.226;2023-07-31T00:27:42;7.45;;;5.55;;
56242;SDS011;42155;53.096;23.226;2023-07-31T00:29:42;8.15;;;5.50;;
56242;SDS011;42155;53.096;23.226;2023-07-31T00:31:43;8.90;;;5.88;;
56242;SDS011;42155;53.096;23.226;2023-07-31T00:33:43;12.50;;;5.57;;
56242;SDS011;42155;53.096;23.226;2023-07-31T00:35:43;8.13;;;5.88;;
56242;SDS011;42155;53.096;23.226;2023-07-31T00:37:43;10.77;;;5.50;;
56242;SDS011;42155;53.096;23.226;2023-07-31T00:39:44;9.05;;;5.22;;
56242;SDS011;42155;53.096;23.226;2023-07-31T00:41:44;6.65;;;5.20;;
56242;SDS011;42155;53.096;23.226;2023-07-31T00:43:44;7.72;;;5.70;;
56242;SDS011;42155;53.096;23.226;2023-07-31T00:45:45;7.80;;;5.45;;
56242;SDS011;42155;53.096;23.226;2023-07-31T00:47:45;7.43;;;5.55;;
56242;SDS011;42155;53.096;23.226;2023-07-31T00:49:45;9.15;;;6.07;;
56242;SDS011;42155;53.096;23.226;2023-07-31T00:51:46;7.78;;;5.75;;
56242;SDS011;42155;53.096;23.226;2023-07-31T00:53:46;8.88;;;5.65;;
56242;SDS011;42155;53.096;23.226;2023-07-31T00:55:47;9.30;;;6.38;;
56242;SDS011;42155;53.096;23.226;2023-07-31T00:57:48;9.10;;;6.00;;
56242;SDS011;42155;53.096;23.226;2023-07-31T00:59:49;8.68;;;5.55;;
56242;SDS011;42155;53.096;23.226;2023-07-31T01:01:49;8.98;;;5.47;;
56242;SDS011;42155;53.096;23.226;2023-07-31T01:03:50;8.63;;;5.53;;
56242;SDS011;42155;53.096;23.226;2023-07-31T01:07:56;10.85;;;6.03;;
56242;SDS011;42155;53.096;23.226;2023-07-31T01:10:09;9.43;;;5.78;;
56242;SDS011;42155;53.096;23.226;2023-07-31T01:12:15;8.85;;;6.15;;
56242;SDS011;42155;53.096;23.226;2023-07-31T01:14:16;12.32;;;5.85;;
56242;SDS011;42155;53.096;23.226;2023-07-31T01:16:17;7.80;;;5.70;;
56242;SDS011;42155;53.096;23.226;2023-07-31T01:18:17;7.88;;;5.20;;
56242;SDS011;42155;53.096;23.226;2023-07-31T01:20:21;7.70;;;5.40;;
56242;SDS011;42155;53.096;23.226;2023-07-31T01:22:42;8.73;;;5.75;;
56242;SDS011;42155;53.096;23.226;2023-07-31T01:25:11;10.27;;;5.55;;
56242;SDS011;42155;53.096;23.226;2023-07-31T01:27:38;7.00;;;4.50;;
56242;SDS011;42155;53.096;23.226;2023-07-31T01:29:48;8.30;;;5.10;;
56242;SDS011;42155;53.096;23.226;2023-07-31T01:31:53;6.65;;;4.43;;
56242;SDS011;42155;53.096;23.226;2023-07-31T01:33:56;7.78;;;4.70;;
56242;SDS011;42155;53.096;23.226;2023-07-31T01:36:00;8.05;;;5.07;;
56242;SDS011;42155;53.096;23.226;2023-07-31T01:38:01;6.68;;;4.50;;
56242;SDS011;42155;53.096;23.226;2023-07-31T01:40:02;6.43;;;4.68;;
56242;SDS011;42155;53.096;23.226;2023-07-31T01:42:03;7.07;;;5.05;;
56242;SDS011;42155;53.096;23.226;2023-07-31T01:44:03;5.80;;;4.60;;
56242;SDS011;42155;53.096;23.226;2023-07-31T01:46:04;8.25;;;4.90;;
56242;SDS011;42155;53.096;23.226;2023-07-31T01:48:04;7.25;;;5.50;;
56242;SDS011;42155;53.096;23.226;2023-07-31T01:50:05;8.00;;;5.13;;
56242;SDS011;42155;53.096;23.226;2023-07-31T01:52:06;8.07;;;4.70;;
56242;SDS011;42155;53.096;23.226;2023-07-31T01:54:06;8.13;;;4.43;;
56242;SDS011;42155;53.096;23.226;2023-07-31T01:56:06;6.93;;;4.85;;
56242;SDS011;42155;53.096;23.226;2023-07-31T01:58:07;6.35;;;4.88;;
56242;SDS011;42155;53.096;23.226;2023-07-31T02:00:07;8.30;;;5.50;;
56242;SDS011;42155;53.096;23.226;2023-07-31T02:02:08;9.45;;;6.20;;
56242;SDS011;42155;53.096;23.226;2023-07-31T02:04:08;10.95;;;4.88;;
56242;SDS011;42155;53.096;23.226;2023-07-31T02:06:08;9.70;;;5.30;;
56242;SDS011;42155;53.096;23.226;2023-07-31T02:08:09;6.40;;;5.00;;
56242;SDS011;42155;53.096;23.226;2023-07-31T02:10:09;7.55;;;5.45;;
56242;SDS011;42155;53.096;23.226;2023-07-31T02:12:09;8.15;;;5.18;;
56242;SDS011;42155;53.096;23.226;2023-07-31T02:14:09;10.15;;;5.40;;
56242;SDS011;42155;53.096;23.226;2023-07-31T02:16:10;9.48;;;6.20;;
56242;SDS011;42155;53.096;23.226;2023-07-31T02:18:10;9.57;;;6.13;;
56242;SDS011;42155;53.096;23.226;2023-07-31T02:20:10;9.20;;;6.45;;
56242;SDS011;42155;53.096;23.226;2023-07-31T02:22:11;9.10;;;6.30;;
56242;SDS011;42155;53.096;23.226;2023-07-31T02:24:11;8.63;;;5.63;;
56242;SDS011;42155;53.096;23.226;2023-07-31T02:26:12;9.55;;;6.25;;
56242;SDS011;42155;53.096;23.226;2023-07-31T02:28:12;9.98;;;6.30;;
56242;SDS011;42155;53.096;23.226;2023-07-31T02:30:12;10.57;;;6.68;;
56242;SDS011;42155;53.096;23.226;2023-07-31T02:32:13;10.10;;;6.35;;
56242;SDS011;42155;53.096;23.226;2023-07-31T02:34:13;8.68;;;6.25;;
56242;SDS011;42155;53.096;23.226;2023-07-31T02:36:13;11.90;;;6.78;;
56242;SDS011;42155;53.096;23.226;2023-07-31T02:38:14;10.77;;;6.32;;
56242;SDS011;42155;53.096;23.226;2023-07-31T02:40:14;11.95;;;7.22;;
56242;SDS011;42155;53.096;23.226;2023-07-31T02:42:14;10.82;;;7.38;;
56242;SDS011;42155;53.096;23.226;2023-07-31T02:44:15;11.77;;;7.07;;
56242;SDS011;42155;53.096;23.226;2023-07-31T02:46:15;9.23;;;6.95;;
56242;SDS011;42155;53.096;23.226;2023-07-31T02:48:15;10.55;;;7.55;;
56242;SDS011;42155;53.096;23.226;2023-07-31T02:50:16;10.10;;;6.53;;
56242;SDS011;42155;53.096;23.226;2023-07-31T02:52:16;13.52;;;7.30;;
56242;SDS011;42155;53.096;23.226;2023-07-31T02:54:16;9.80;;;6.88;;
56242;SDS011;42155;53.096;23.226;2023-07-31T02:56:17;11.70;;;6.97;;
56242;SDS011;42155;53.096;23.226;2023-07-31T02:58:17;9.18;;;6.47;;
56242;SDS011;42155;53.096;23.226;2023-07-31T03:00:17;10.98;;;6.43;;
56242;SDS011;42155;53.096;23.226;2023-07-31T03:02:18;11.85;;;6.78;;
56242;SDS011;42155;53.096;23.226;2023-07-31T03:04:18;9.60;;;6.55;;
56242;SDS011;42155;53.096;23.226;2023-07-31T03:06:18;10.18;;;6.65;;
56242;SDS011;42155;53.096;23.226;2023-07-31T03:08:19;8.32;;;6.15;;
56242;SDS011;42155;53.096;23.226;2023-07-31T03:10:19;9.98;;;7.05;;
56242;SDS011;42155;53.096;23.226;2023-07-31T03:12:20;14.32;;;7.38;;
56242;SDS011;42155;53.096;23.226;2023-07-31T03:14:20;9.05;;;6.78;;
56242;SDS011;42155;53.096;23.226;2023-07-31T03:16:20;10.20;;;6.43;;
56242;SDS011;42155;53.096;23.226;2023-07-31T03:18:21;9.45;;;6.78;;
56242;SDS011;42155;53.096;23.226;2023-07-31T03:20:21;10.25;;;6.32;;
56242;SDS011;42155;53.096;23.226;2023-07-31T03:22:21;8.85;;;6.80;;
56242;SDS011;42155;53.096;23.226;2023-07-31T03:24:22;9.30;;;6.60;;
56242;SDS011;42155;53.096;23.226;2023-07-31T03:26:22;9.60;;;6.72;;
56242;SDS011;42155;53.096;23.226;2023-07-31T03:28:22;11.50;;;7.57;;
56242;SDS011;42155;53.096;23.226;2023-07-31T03:30:23;8.93;;;6.80;;
56242;SDS011;42155;53.096;23.226;2023-07-31T03:32:23;9.05;;;6.43;;
56242;SDS011;42155;53.096;23.226;2023-07-31T03:34:23;9.20;;;6.40;;
56242;SDS011;42155;53.096;23.226;2023-07-31T03:36:24;10.40;;;7.57;;
56242;SDS011;42155;53.096;23.226;2023-07-31T03:38:24;11.25;;;7.40;;
56242;SDS011;42155;53.096;23.226;2023-07-31T03:40:24;10.75;;;7.28;;
56242;SDS011;42155;53.096;23.226;2023-07-31T03:42:25;13.38;;;7.70;;
56242;SDS011;42155;53.096;23.226;2023-07-31T03:44:25;9.70;;;6.97;;
56242;SDS011;42155;53.096;23.226;2023-07-31T03:46:25;10.18;;;7.45;;
56242;SDS011;42155;53.096;23.226;2023-07-31T03:48:25;10.15;;;7.50;;
56242;SDS011;42155;53.096;23.226;2023-07-31T03:50:26;10.05;;;7.85;;
56242;SDS011;42155;53.096;23.226;2023-07-31T03:52:26;10.02;;;7.18;;
56242;SDS011;42155;53.096;23.226;2023-07-31T03:54:26;11.38;;;7.47;;
56242;SDS011;42155;53.096;23.226;2023-07-31T03:56:27;11.50;;;7.30;;
56242;SDS011;42155;53.096;23.226;2023-07-31T03:58:27;10.57;;;7.55;;
56242;SDS011;42155;53.096;23.226;2023-07-31T04:00:27;8.93;;;7.15;;
56242;SDS011;42155;53.096;23.226;2023-07-31T04:02:28;13.98;;;7.88;;
56242;SDS011;42155;53.096;23.226;2023-07-31T04:04:28;11.13;;;6.78;;
56242;SDS011;42155;53.096;23.226;2023-07-31T04:06:28;12.10;;;7.53;;
56242;SDS011;42155;53.096;23.226;2023-07-31T04:08:29;9.52;;;7.00;;
56242;SDS011;42155;53.096;23.226;2023-07-31T04:10:29;9.52;;;6.47;;
56242;SDS011;42155;53.096;23.226;2023-07-31T04:12:29;8.10;;;6.25;;
56242;SDS011;42155;53.096;23.226;2023-07-31T04:14:30;11.55;;;7.35;;
56242;SDS011;42155;53.096;23.226;2023-07-31T04:16:30;10.63;;;6.75;;
56242;SDS011;42155;53.096;23.226;2023-07-31T04:18:30;10.48;;;6.60;;
56242;SDS011;42155;53.096;23.226;2023-07-31T04:20:31;9.75;;;6.50;;
56242;SDS011;42155;53.096;23.226;2023-07-31T04:22:31;10.80;;;6.80;;
56242;SDS011;42155;53.096;23.226;2023-07-31T04:24:31;11.20;;;7.10;;
56242;SDS011;42155;53.096;23.226;2023-07-31T04:26:32;9.05;;;6.38;;
56242;SDS011;42155;53.096;23.226;2023-07-31T04:28:32;10.90;;;6.53;;
56242;SDS011;42155;53.096;23.226;2023-07-31T04:30:32;9.13;;;6.28;;
56242;SDS011;42155;53.096;23.226;2023-07-31T04:32:33;7.70;;;6.07;;
56242;SDS011;42155;53.096;23.226;2023-07-31T04:34:33;11.88;;;6.20;;
56242;SDS011;42155;53.096;23.226;2023-07-31T04:36:34;6.82;;;5.65;;
56242;SDS011;42155;53.096;23.226;2023-07-31T04:38:34;10.88;;;5.70;;
56242;SDS011;42155;53.096;23.226;2023-07-31T04:40:34;7.35;;;6.10;;
56242;SDS011;42155;53.096;23.226;2023-07-31T04:42:35;11.30;;;6.03;;
56242;SDS011;42155;53.096;23.226;2023-07-31T04:44:35;10.68;;;6.28;;
56242;SDS011;42155;53.096;23.226;2023-07-31T04:46:36;7.57;;;6.07;;
56242;SDS011;42155;53.096;23.226;2023-07-31T04:48:36;9.55;;;5.78;;
56242;SDS011;42155;53.096;23.226;2023-07-31T04:50:36;7.70;;;5.55;;
56242;SDS011;42155;53.096;23.226;2023-07-31T04:52:36;8.55;;;6.03;;
56242;SDS011;42155;53.096;23.226;2023-07-31T04:54:37;6.90;;;5.35;;
56242;SDS011;42155;53.096;23.226;2023-07-31T04:56:37;10.25;;;6.20;;
56242;SDS011;42155;53.096;23.226;2023-07-31T04:58:38;14.30;;;5.90;;
56242;SDS011;42155;53.096;23.226;2023-07-31T05:00:38;9.65;;;5.72;;
56242;SDS011;42155;53.096;23.226;2023-07-31T05:02:38;7.50;;;5.15;;
56242;SDS011;42155;53.096;23.226;2023-07-31T05:04:39;7.57;;;4.95;;
56242;SDS011;42155;53.096;23.226;2023-07-31T05:06:39;8.63;;;5.13;;
56242;SDS011;42155;53.096;23.226;2023-07-31T05:08:40;8.93;;;5.43;;
56242;SDS011;42155;53.096;23.226;2023-07-31T05:10:40;10.95;;;5.30;;
56242;SDS011;42155;53.096;23.226;2023-07-31T05:12:41;6.75;;;5.20;;
56242;SDS011;42155;53.096;23.226;2023-07-31T05:14:41;7.35;;;5.43;;
56242;SDS011;42155;53.096;23.226;2023-07-31T05:16:41;8.43;;;6.28;;
56242;SDS011;42155;53.096;23.226;2023-07-31T05:18:42;7.35;;;5.70;;
56242;SDS011;42155;53.096;23.226;2023-07-31T05:20:42;12.48;;;7.13;;
56242;SDS011;42155;53.096;23.226;2023-07-31T05:22:42;9.00;;;6.30;;
56242;SDS011;42155;53.096;23.226;2023-07-31T05:24:43;8.88;;;6.10;;
56242;SDS011;42155;53.096;23.226;2023-07-31T05:26:43;10.80;;;6.03;;
56242;SDS011;42155;53.096;23.226;2023-07-31T05:28:43;8.88;;;6.15;;
56242;SDS011;42155;53.096;23.226;2023-07-31T05:30:44;9.63;;;6.28;;
56242;SDS011;42155;53.096;23.226;2023-07-31T05:32:44;7.95;;;5.90;;
56242;SDS011;42155;53.096;23.226;2023-07-31T05:34:44;10.15;;;6.10;;
56242;SDS011;42155;53.096;23.226;2023-07-31T05:36:45;10.93;;;5.35;;
56242;SDS011;42155;53.096;23.226;2023-07-31T05:38:45;7.35;;;5.80;;
56242;SDS011;42155;53.096;23.226;2023-07-31T05:40:46;7.63;;;5.07;;
56242;SDS011;42155;53.096;23.226;2023-07-31T05:42:46;6.50;;;4.88;;
56242;SDS011;42155;53.096;23.226;2023-07-31T05:44:47;7.60;;;5.00;;
56242;SDS011;42155;53.096;23.226;2023-07-31T05:46:47;8.02;;;5.40;;
56242;SDS011;42155;53.096;23.226;2023-07-31T05:48:47;7.47;;;5.07;;
56242;SDS011;42155;53.096;23.226;2023-07-31T05:50:48;6.30;;;4.43;;
56242;SDS011;42155;53.096;23.226;2023-07-31T05:52:48;6.75;;;5.22;;
56242;SDS011;42155;53.096;23.226;2023-07-31T05:54:48;7.47;;;4.80;;
56242;SDS011;42155;53.096;23.226;2023-07-31T05:56:49;11.60;;;5.25;;
56242;SDS011;42155;53.096;23.226;2023-07-31T05:58:49;8.43;;;4.93;;
56242;SDS011;42155;53.096;23.226;2023-07-31T06:00:49;8.75;;;5.30;;
56242;SDS011;42155;53.096;23.226;2023-07-31T06:02:50;6.55;;;4.82;;
56242;SDS011;42155;53.096;23.226;2023-07-31T06:04:50;7.38;;;5.07;;
56242;SDS011;42155;53.096;23.226;2023-07-31T06:06:50;8.55;;;5.28;;
56242;SDS011;42155;53.096;23.226;2023-07-31T06:08:51;6.53;;;4.50;;
56242;SDS011;42155;53.096;23.226;2023-07-31T06:10:52;6.22;;;4.40;;
56242;SDS011;42155;53.096;23.226;2023-07-31T06:12:52;10.82;;;4.97;;
56242;SDS011;42155;53.096;23.226;2023-07-31T06:14:52;11.52;;;4.65;;
56242;SDS011;42155;53.096;23.226;2023-07-31T06:16:53;5.72;;;4.60;;
56242;SDS011;42155;53.096;23.226;2023-07-31T06:18:53;6.22;;;4.40;;
56242;SDS011;42155;53.096;23.226;2023-07-31T06:20:53;5.25;;;4.40;;
56242;SDS011;42155;53.096;23.226;2023-07-31T06:22:54;7.57;;;4.50;;
56242;SDS011;42155;53.096;23.226;2023-07-31T06:24:54;9.13;;;4.50;;
56242;SDS011;42155;53.096;23.226;2023-07-31T06:26:54;5.28;;;4.10;;
56242;SDS011;42155;53.096;23.226;2023-07-31T06:28:55;9.27;;;4.60;;
56242;SDS011;42155;53.096;23.226;2023-07-31T06:30:55;7.82;;;4.80;;
56242;SDS011;42155;53.096;23.226;2023-07-31T06:32:56;7.18;;;4.97;;
56242;SDS011;42155;53.096;23.226;2023-07-31T06:34:56;7.15;;;4.82;;
56242;SDS011;42155;53.096;23.226;2023-07-31T06:36:56;5.32;;;4.07;;
56242;SDS011;42155;53.096;23.226;2023-07-31T06:38:57;6.45;;;4.13;;
56242;SDS011;42155;53.096;23.226;2023-07-31T06:40:57;8.60;;;4.35;;
56242;SDS011;42155;53.096;23.226;2023-07-31T06:42:57;7.55;;;4.45;;
56242;SDS011;42155;53.096;23.226;2023-07-31T06:44:58;6.50;;;3.83;;
56242;SDS011;42155;53.096;23.226;2023-07-31T06:46:58;7.43;;;4.40;;
56242;SDS011;42155;53.096;23.226;2023-07-31T06:48:58;4.82;;;4.30;;
56242;SDS011;42155;53.096;23.226;2023-07-31T06:50:59;8.32;;;4.57;;
56242;SDS011;42155;53.096;23.226;2023-07-31T06:53:00;5.40;;;3.70;;
56242;SDS011;42155;53.096;23.226;2023-07-31T06:55:01;5.20;;;3.90;;
56242;SDS011;42155;53.096;23.226;2023-07-31T06:57:28;4.10;;;3.60;;
56242;SDS011;42155;53.096;23.226;2023-07-31T06:59:28;5.95;;;3.20;;
56242;SDS011;42155;53.096;23.226;2023-07-31T07:01:28;5.78;;;3.33;;
56242;SDS011;42155;53.096;23.226;2023-07-31T07:03:29;5.28;;;3.40;;
56242;SDS011;42155;53.096;23.226;2023-07-31T07:05:29;5.72;;;3.47;;
56242;SDS011;42155;53.096;23.226;2023-07-31T07:07:29;6.60;;;3.47;;
56242;SDS011;42155;53.096;23.226;2023-07-31T07:09:30;4.72;;;3.35;;
56242;SDS011;42155;53.096;23.226;2023-07-31T07:11:31;4.60;;;3.10;;
56242;SDS011;42155;53.096;23.226;2023-07-31T07:13:32;6.50;;;3.30;;
56242;SDS011;42155;53.096;23.226;2023-07-31T07:15:32;4.50;;;3.40;;
56242;SDS011;42155;53.096;23.226;2023-07-31T07:17:32;6.53;;;3.40;;
56242;SDS011;42155;53.096;23.226;2023-07-31T07:19:33;5.80;;;3.47;;
56242;SDS011;42155;53.096;23.226;2023-07-31T07:21:33;3.83;;;3.10;;
56242;SDS011;42155;53.096;23.226;2023-07-31T07:23:33;6.18;;;3.28;;
56242;SDS011;42155;53.096;23.226;2023-07-31T07:25:37;6.00;;;3.63;;
56242;SDS011;42155;53.096;23.226;2023-07-31T07:27:37;6.70;;;3.63;;
56242;SDS011;42155;53.096;23.226;2023-07-31T07:29:38;6.05;;;3.50;;
56242;SDS011;42155;53.096;23.226;2023-07-31T07:31:38;5.25;;;3.53;;
56242;SDS011;42155;53.096;23.226;2023-07-31T07:33:39;9.77;;;3.58;;
56242;SDS011;42155;53.096;23.226;2023-07-31T07:35:39;5.82;;;2.97;;
56242;SDS011;42155;53.096;23.226;2023-07-31T07:37:39;4.80;;;3.45;;
56242;SDS011;42155;53.096;23.226;2023-07-31T07:39:40;4.97;;;3.30;;
56242;SDS011;42155;53.096;23.226;2023-07-31T07:41:41;5.30;;;3.53;;
56242;SDS011;42155;53.096;23.226;2023-07-31T07:43:41;6.40;;;3.72;;
56242;SDS011;42155;53.096;23.226;2023-07-31T07:45:41;5.22;;;3.17;;
56242;SDS011;42155;53.096;23.226;2023-07-31T07:47:42;6.97;;;3.47;;
56242;SDS011;42155;53.096;23.226;2023-07-31T07:49:42;4.80;;;3.05;;
56242;SDS011;42155;53.096;23.226;2023-07-31T07:51:42;4.20;;;3.17;;
56242;SDS011;42155;53.096;23.226;2023-07-31T07:53:43;4.68;;;3.17;;
56242;SDS011;42155;53.096;23.226;2023-07-31T07:55:43;3.97;;;3.00;;
56242;SDS011;42155;53.096;23.226;2023-07-31T07:57:43;3.08;;;2.60;;
56242;SDS011;42155;53.096;23.226;2023-07-31T07:59:44;3.63;;;2.55;;
56242;SDS011;42155;53.096;23.226;2023-07-31T08:01:44;4.13;;;2.92;;
56242;SDS011;42155;53.096;23.226;2023-07-31T08:03:45;3.10;;;2.30;;
56242;SDS011;42155;53.096;23.226;2023-07-31T08:05:47;4.70;;;2.80;;
56242;SDS011;42155;53.096;23.226;2023-07-31T08:07:47;4.40;;;2.80;;
56242;SDS011;42155;53.096;23.226;2023-07-31T08:09:47;4.70;;;2.60;;
56242;SDS011;42155;53.096;23.226;2023-07-31T08:11:47;14.07;;;3.10;;
56242;SDS011;42155;53.096;23.226;2023-07-31T08:13:49;4.65;;;3.17;;
56242;SDS011;42155;53.096;23.226;2023-07-31T08:15:50;4.57;;;2.95;;
56242;SDS011;42155;53.096;23.226;2023-07-31T08:17:50;4.43;;;2.53;;
56242;SDS011;42155;53.096;23.226;2023-07-31T08:19:50;7.47;;;2.83;;
56242;SDS011;42155;53.096;23.226;2023-07-31T08:21:51;7.68;;;3.28;;
56242;SDS011;42155;53.096;23.226;2023-07-31T08:23:51;5.35;;;2.92;;
56242;SDS011;42155;53.096;23.226;2023-07-31T08:25:51;9.00;;;2.83;;
56242;SDS011;42155;53.096;23.226;2023-07-31T08:27:51;4.80;;;3.25;;
56242;SDS011;42155;53.096;23.226;2023-07-31T08:29:52;4.85;;;3.05;;
56242;SDS011;42155;53.096;23.226;2023-07-31T08:31:52;8.93;;;3.40;;
56242;SDS011;42155;53.096;23.226;2023-07-31T08:33:53;5.30;;;2.70;;
56242;SDS011;42155;53.096;23.226;2023-07-31T08:35:53;4.53;;;3.08;;
56242;SDS011;42155;53.096;23.226;2023-07-31T08:37:53;4.18;;;3.13;;
56242;SDS011;42155;53.096;23.226;2023-07-31T08:39:54;4.00;;;2.65;;
56242;SDS011;42155;53.096;23.226;2023-07-31T08:41:57;4.50;;;2.65;;
56242;SDS011;42155;53.096;23.226;2023-07-31T08:43:58;3.40;;;2.40;;
56242;SDS011;42155;53.096;23.226;2023-07-31T08:46:00;3.30;;;2.47;;
56242;SDS011;42155;53.096;23.226;2023-07-31T08:48:01;5.70;;;2.60;;
56242;SDS011;42155;53.096;23.226;2023-07-31T08:50:02;4.50;;;3.60;;
56242;SDS011;42155;53.096;23.226;2023-07-31T08:52:04;4.45;;;2.50;;
56242;SDS011;42155;53.096;23.226;2023-07-31T08:54:04;5.70;;;2.47;;
56242;SDS011;42155;53.096;23.226;2023-07-31T08:56:05;3.63;;;2.50;;
56242;SDS011;42155;53.096;23.226;2023-07-31T08:58:06;4.85;;;2.72;;
56242;SDS011;42155;53.096;23.226;2023-07-31T09:00:07;4.35;;;2.90;;
56242;SDS011;42155;53.096;23.226;2023-07-31T09:02:08;3.85;;;2.83;;
56242;SDS011;42155;53.096;23.226;2023-07-31T09:04:09;9.57;;;3.05;;
56242;SDS011;42155;53.096;23.226;2023-07-31T09:06:10;5.43;;;2.90;;
56242;SDS011;42155;53.096;23.226;2023-07-31T09:08:13;4.13;;;2.42;;
56242;SDS011;42155;53.096;23.226;2023-07-31T09:10:19;6.70;;;2.70;;
56242;SDS011;42155;53.096;23.226;2023-07-31T09:12:19;6.65;;;2.65;;
56242;SDS011;42155;53.096;23.226;2023-07-31T09:14:20;5.85;;;2.42;;
56242;SDS011;42155;53.096;23.226;2023-07-31T09:16:27;3.67;;;2.40;;
56242;SDS011;42155;53.096;23.226;2023-07-31T09:18:28;4.45;;;2.55;;
56242;SDS011;42155;53.096;23.226;2023-07-31T09:20:28;4.32;;;2.75;;
56242;SDS011;42155;53.096;23.226;2023-07-31T09:22:32;6.03;;;2.83;;
56242;SDS011;42155;53.096;23.226;2023-07-31T09:24:33;3.38;;;2.60;;
56242;SDS011;42155;53.096;23.226;2023-07-31T09:26:37;3.92;;;2.50;;
56242;SDS011;42155;53.096;23.226;2023-07-31T09:28:37;8.38;;;2.50;;
56242;SDS011;42155;53.096;23.226;2023-07-31T09:30:48;6.00;;;2.55;;
56242;SDS011;42155;53.096;23.226;2023-07-31T09:32:50;5.25;;;2.35;;
56242;SDS011;42155;53.096;23.226;2023-07-31T09:34:51;2.97;;;1.83;;
56242;SDS011;42155;53.096;23.226;2023-07-31T09:36:51;2.53;;;1.80;;
56242;SDS011;42155;53.096;23.226;2023-07-31T09:38:52;2.55;;;1.80;;
56242;SDS011;42155;53.096;23.226;2023-07-31T09:40:52;3.28;;;1.30;;
56242;SDS011;42155;53.096;23.226;2023-07-31T09:42:53;2.38;;;1.73;;
56242;SDS011;42155;53.096;23.226;2023-07-31T09:45:07;3.75;;;1.67;;
56242;SDS011;42155;53.096;23.226;2023-07-31T09:49:23;3.95;;;1.80;;
56242;SDS011;42155;53.096;23.226;2023-07-31T09:51:28;2.60;;;1.67;;
56242;SDS011;42155;53.096;23.226;2023-07-31T09:53:28;3.75;;;1.70;;
56242;SDS011;42155;53.096;23.226;2023-07-31T09:55:29;2.25;;;1.45;;
56242;SDS011;42155;53.096;23.226;2023-07-31T09:57:29;3.30;;;1.65;;
56242;SDS011;42155;53.096;23.226;2023-07-31T09:59:31;2.42;;;1.52;;
56242;SDS011;42155;53.096;23.226;2023-07-31T10:01:31;3.17;;;1.50;;
56242;SDS011;42155;53.096;23.226;2023-07-31T10:03:32;2.22;;;1.45;;
56242;SDS011;42155;53.096;23.226;2023-07-31T10:07:38;2.78;;;1.70;;
56242;SDS011;42155;53.096;23.226;2023-07-31T10:09:39;3.25;;;1.63;;
56242;SDS011;42155;53.096;23.226;2023-07-31T10:11:47;3.60;;;1.73;;
56242;SDS011;42155;53.096;23.226;2023-07-31T10:13:48;3.47;;;1.77;;
56242;SDS011;42155;53.096;23.226;2023-07-31T10:15:49;4.75;;;1.90;;
56242;SDS011;42155;53.096;23.226;2023-07-31T10:17:50;5.22;;;1.65;;
56242;SDS011;42155;53.096;23.226;2023-07-31T10:19:51;3.45;;;1.60;;
56242;SDS011;42155;53.096;23.226;2023-07-31T10:21:53;3.83;;;1.38;;
56242;SDS011;42155;53.096;23.226;2023-07-31T10:23:54;2.08;;;1.40;;
56242;SDS011;42155;53.096;23.226;2023-07-31T10:25:55;5.53;;;1.83;;
56242;SDS011;42155;53.096;23.226;2023-07-31T10:27:58;3.75;;;1.85;;
56242;SDS011;42155;53.096;23.226;2023-07-31T10:29:59;2.83;;;1.58;;
56242;SDS011;42155;53.096;23.226;2023-07-31T10:31:59;2.47;;;1.60;;
56242;SDS011;42155;53.096;23.226;2023-07-31T10:34:01;2.65;;;1.48;;
56242;SDS011;42155;53.096;23.226;2023-07-31T10:36:12;5.30;;;1.50;;
56242;SDS011;42155;53.096;23.226;2023-07-31T10:38:19;2.88;;;1.60;;
56242;SDS011;42155;53.096;23.226;2023-07-31T10:40:28;2.67;;;1.70;;
56242;SDS011;42155;53.096;23.226;2023-07-31T10:42:30;4.80;;;1.58;;
56242;SDS011;42155;53.096;23.226;2023-07-31T10:44:31;3.92;;;1.35;;
56242;SDS011;42155;53.096;23.226;2023-07-31T10:46:32;2.47;;;1.80;;
56242;SDS011;42155;53.096;23.226;2023-07-31T10:48:33;2.40;;;1.63;;
56242;SDS011;42155;53.096;23.226;2023-07-31T10:50:37;2.13;;;1.40;;
56242;SDS011;42155;53.096;23.226;2023-07-31T10:52:38;3.72;;;1.65;;
56242;SDS011;42155;53.096;23.226;2023-07-31T10:54:39;4.32;;;1.58;;
56242;SDS011;42155;53.096;23.226;2023-07-31T10:56:39;3.65;;;1.65;;
56242;SDS011;42155;53.096;23.226;2023-07-31T10:58:39;2.80;;;1.77;;
56242;SDS011;42155;53.096;23.226;2023-07-31T11:00:43;4.63;;;2.22;;
56242;SDS011;42155;53.096;23.226;2023-07-31T11:02:55;4.18;;;1.60;;
56242;SDS011;42155;53.096;23.226;2023-07-31T11:05:09;2.25;;;1.48;;
56242;SDS011;42155;53.096;23.226;2023-07-31T11:07:09;3.20;;;1.73;;
56242;SDS011;42155;53.096;23.226;2023-07-31T11:09:10;4.43;;;1.70;;
56242;SDS011;42155;53.096;23.226;2023-07-31T11:11:15;3.72;;;1.80;;
56242;SDS011;42155;53.096;23.226;2023-07-31T11:13:16;4.90;;;1.85;;
56242;SDS011;42155;53.096;23.226;2023-07-31T11:15:17;6.60;;;1.98;;
56242;SDS011;42155;53.096;23.226;2023-07-31T11:17:17;4.35;;;1.75;;
56242;SDS011;42155;53.096;23.226;2023-07-31T11:19:21;7.47;;;1.70;;
56242;SDS011;42155;53.096;23.226;2023-07-31T11:21:25;5.30;;;1.70;;
56242;SDS011;42155;53.096;23.226;2023-07-31T11:23:25;3.88;;;1.73;;
56242;SDS011;42155;53.096;23.226;2023-07-31T11:25:26;4.57;;;1.98;;
56242;SDS011;42155;53.096;23.226;2023-07-31T11:27:29;2.47;;;1.77;;
56242;SDS011;42155;53.096;23.226;2023-07-31T11:29:30;3.35;;;1.48;;
56242;SDS011;42155;53.096;23.226;2023-07-31T11:31:30;3.75;;;1.75;;
56242;SDS011;42155;53.096;23.226;2023-07-31T11:33:30;4.32;;;1.77;;
56242;SDS011;42155;53.096;23.226;2023-07-31T11:35:32;4.35;;;1.75;;
56242;SDS011;42155;53.096;23.226;2023-07-31T11:37:42;3.65;;;1.77;;
56242;SDS011;42155;53.096;23.226;2023-07-31T11:41:43;3.90;;;1.63;;
56242;SDS011;42155;53.096;23.226;2023-07-31T11:43:44;4.97;;;2.10;;
56242;SDS011;42155;53.096;23.226;2023-07-31T11:45:48;2.97;;;1.75;;
56242;SDS011;42155;53.096;23.226;2023-07-31T11:47:49;2.30;;;1.58;;
56242;SDS011;42155;53.096;23.226;2023-07-31T11:49:49;6.57;;;2.35;;
56242;SDS011;42155;53.096;23.226;2023-07-31T11:51:50;7.65;;;1.83;;
56242;SDS011;42155;53.096;23.226;2023-07-31T11:53:51;5.50;;;1.75;;
56242;SDS011;42155;53.096;23.226;2023-07-31T11:55:54;3.90;;;1.92;;
56242;SDS011;42155;53.096;23.226;2023-07-31T11:57:57;3.67;;;1.90;;
56242;SDS011;42155;53.096;23.226;2023-07-31T11:59:59;8.30;;;2.15;;
56242;SDS011;42155;53.096;23.226;2023-07-31T12:01:59;4.22;;;1.85;;
56242;SDS011;42155;53.096;23.226;2023-07-31T12:04:00;5.57;;;1.65;;
56242;SDS011;42155;53.096;23.226;2023-07-31T12:06:01;6.55;;;2.15;;
56242;SDS011;42155;53.096;23.226;2023-07-31T12:08:01;3.35;;;1.70;;